sensor_id;sensor_type;location;lat;lon;timestamp;pressure;altitude;pressure_sealevel;temperature;humidity
69784;BME280;57054;51.978;4.498;2024-02-16T00:00:59;100876.16;;;10.69;100.00
69784;BME280;57054;51.978;4.498;2024-02-16T00:03:25;100878.00;;;10.67;100.00
69784;BME280;57054;51.978;4.498;2024-02-16T00:05:50;100872.81;;;10.66;100.00
69784;BME280;57054;51.978;4.498;2024-02-16T00:08:17;100874.53;;;10.67;100.00
69784;BME280;57054;51.978;4.498;2024-02-16T00:10:42;100881.59;;;10.65;100.00
69784;BME280;57054;51.978;4.498;2024-02-16T00:13:07;100883.38;;;10.64;100.00
69784;BME280;57054;51.978;4.498;2024-02-16T00:15:33;100882.66;;;10.61;100.00
69784;BME280;57054;51.978;4.498;2024-02-16T00:17:58;100880.88;;;10.61;100.00
69784;BME280;57054;51.978;4.498;2024-02-16T00:20:24;100874.78;;;10.61;100.00
69784;BME280;57054;51.978;4.498;2024-02-16T00:22:49;100876.69;;;10.57;100.00
69784;BME280;57054;51.978;4.498;2024-02-16T00:25:14;100875.81;;;10.56;100.00
69784;BME280;57054;51.978;4.498;2024-02-16T00:27:40;100872.34;;;10.56;100.00
69784;BME280;57054;51.978;4.498;2024-02-16T00:30:06;100877.53;;;10.57;100.00
69784;BME280;57054;51.978;4.498;2024-02-16T00:32:31;100871.50;;;10.55;100.00
69784;BME280;57054;51.978;4.498;2024-02-16T00:34:57;100876.72;;;10.55;100.00
69784;BME280;57054;51.978;4.498;2024-02-16T00:37:22;100870.72;;;10.53;100.00
69784;BME280;57054;51.978;4.498;2024-02-16T00:39:49;100867.22;;;10.53;100.00
69784;BME280;57054;51.978;4.498;2024-02-16T00:42:14;100868.19;;;10.50;100.00
69784;BME280;57054;51.978;4.498;2024-02-16T00:44:40;100861.19;;;10.51;100.00
69784;BME280;57054;51.978;4.498;2024-02-16T00:47:05;100857.63;;;10.53;100.00
69784;BME280;57054;51.978;4.498;2024-02-16T00:49:31;100868.00;;;10.55;100.00
69784;BME280;57054;51.978;4.498;2024-02-16T00:51:56;100861.13;;;10.52;100.00
69784;BME280;57054;51.978;4.498;2024-02-16T00:54:21;100848.16;;;10.49;100.00
69784;BME280;57054;51.978;4.498;2024-02-16T00:56:47;100852.50;;;10.50;100.00
69784;BME280;57054;51.978;4.498;2024-02-16T00:59:12;100848.16;;;10.49;100.00
69784;BME280;57054;51.978;4.498;2024-02-16T01:01:38;100839.47;;;10.49;100.00
69784;BME280;57054;51.978;4.498;2024-02-16T01:04:03;100830.75;;;10.48;100.00
69784;BME280;57054;51.978;4.498;2024-02-16T01:06:29;100842.06;;;10.49;100.00
69784;BME280;57054;51.978;4.498;2024-02-16T01:08:54;100849.16;;;10.47;100.00
69784;BME280;57054;51.978;4.498;2024-02-16T01:11:19;100858.78;;;10.46;100.00
69784;BME280;57054;51.978;4.498;2024-02-16T01:13:47;100848.31;;;10.46;100.00
69784;BME280;57054;51.978;4.498;2024-02-16T01:16:13;100841.41;;;10.44;100.00
69784;BME280;57054;51.978;4.498;2024-02-16T01:18:39;100833.59;;;10.42;100.00
69784;BME280;57054;51.978;4.498;2024-02-16T01:21:04;100837.16;;;10.41;100.00
69784;BME280;57054;51.978;4.498;2024-02-16T01:23:30;100838.06;;;10.40;100.00
69784;BME280;57054;51.978;4.498;2024-02-16T01:25:55;100824.97;;;10.40;100.00
69784;BME280;57054;51.978;4.498;2024-02-16T01:28:20;100802.34;;;10.39;100.00
69784;BME280;57054;51.978;4.498;2024-02-16T01:30:46;100804.94;;;10.39;100.00
69784;BME280;57054;51.978;4.498;2024-02-16T01:33:11;100825.94;;;10.37;100.00
69784;BME280;57054;51.978;4.498;2024-02-16T01:35:36;100832.09;;;10.36;100.00
69784;BME280;57054;51.978;4.498;2024-02-16T01:38:02;100830.41;;;10.35;100.00
69784;BME280;57054;51.978;4.498;2024-02-16T01:40:27;100836.59;;;10.33;100.00
69784;BME280;57054;51.978;4.498;2024-02-16T01:42:53;100827.91;;;10.32;100.00
69784;BME280;57054;51.978;4.498;2024-02-16T01:45:19;100829.69;;;10.30;100.00
69784;BME280;57054;51.978;4.498;2024-02-16T01:47:44;100828.97;;;10.27;100.00
69784;BME280;57054;51.978;4.498;2024-02-16T01:50:11;100823.66;;;10.28;100.00
69784;BME280;57054;51.978;4.498;2024-02-16T01:52:37;100821.06;;;10.28;100.00
69784;BME280;57054;51.978;4.498;2024-02-16T01:55:03;100813.25;;;10.27;100.00
69784;BME280;57054;51.978;4.498;2024-02-16T01:57:29;100811.47;;;10.27;100.00
69784;BME280;57054;51.978;4.498;2024-02-16T01:59:55;100819.38;;;10.26;100.00
69784;BME280;57054;51.978;4.498;2024-02-16T02:02:20;100813.31;;;10.25;100.00
69784;BME280;57054;51.978;4.498;2024-02-16T02:04:45;100817.69;;;10.25;100.00
69784;BME280;57054;51.978;4.498;2024-02-16T02:07:14;100817.69;;;10.25;100.00
69784;BME280;57054;51.978;4.498;2024-02-16T02:09:39;100828.19;;;10.25;100.00
69784;BME280;57054;51.978;4.498;2024-02-16T02:12:04;100827.25;;;10.26;100.00
69784;BME280;57054;51.978;4.498;2024-02-16T02:14:30;100821.22;;;10.24;100.00
69784;BME280;57054;51.978;4.498;2024-02-16T02:16:55;100825.63;;;10.23;100.00
69784;BME280;57054;51.978;4.498;2024-02-16T02:19:21;100821.38;;;10.21;100.00
69784;BME280;57054;51.978;4.498;2024-02-16T02:21:46;100816.28;;;10.16;100.00
69784;BME280;57054;51.978;4.498;2024-02-16T02:24:11;100809.28;;;10.16;100.00
69784;BME280;57054;51.978;4.498;2024-02-16T02:26:37;100810.22;;;10.15;100.00
69784;BME280;57054;51.978;4.498;2024-02-16T02:29:02;100809.34;;;10.15;100.00
69784;BME280;57054;51.978;4.498;2024-02-16T02:31:28;100807.66;;;10.14;100.00
69784;BME280;57054;51.978;4.498;2024-02-16T02:33:53;100801.59;;;10.13;100.00
69784;BME280;57054;51.978;4.498;2024-02-16T02:36:18;100806.88;;;10.12;100.00
69784;BME280;57054;51.978;4.498;2024-02-16T02:38:44;100805.09;;;10.12;100.00
69784;BME280;57054;51.978;4.498;2024-02-16T02:41:09;100808.50;;;10.14;100.00
69784;BME280;57054;51.978;4.498;2024-02-16T02:43:34;100803.28;;;10.14;100.00
69784;BME280;57054;51.978;4.498;2024-02-16T02:46:00;100797.06;;;10.17;100.00
69784;BME280;57054;51.978;4.498;2024-02-16T02:48:25;100800.47;;;10.19;100.00
69784;BME280;57054;51.978;4.498;2024-02-16T02:50:50;100802.22;;;10.18;100.00
69784;BME280;57054;51.978;4.498;2024-02-16T02:53:15;100797.97;;;10.16;100.00
69784;BME280;57054;51.978;4.498;2024-02-16T02:55:41;100793.53;;;10.18;100.00
69784;BME280;57054;51.978;4.498;2024-02-16T02:58:06;100788.28;;;10.18;100.00
69784;BME280;57054;51.978;4.498;2024-02-16T03:00:31;100784.84;;;10.17;100.00
69784;BME280;57054;51.978;4.498;2024-02-16T03:02:57;100771.75;;;10.17;100.00
69784;BME280;57054;51.978;4.498;2024-02-16T03:05:22;100778.66;;;10.18;100.00
69784;BME280;57054;51.978;4.498;2024-02-16T03:07:47;100780.34;;;10.21;100.00
69784;BME280;57054;51.978;4.498;2024-02-16T03:10:12;100768.88;;;10.24;100.00
69784;BME280;57054;51.978;4.498;2024-02-16T03:12:39;100765.34;;;10.25;100.00
69784;BME280;57054;51.978;4.498;2024-02-16T03:15:07;100777.72;;;10.21;100.00
69784;BME280;57054;51.978;4.498;2024-02-16T03:17:32;100766.25;;;10.24;100.00
69784;BME280;57054;51.978;4.498;2024-02-16T03:19:58;100775.00;;;10.24;100.00
69784;BME280;57054;51.978;4.498;2024-02-16T03:22:23;100768.88;;;10.24;100.00
69784;BME280;57054;51.978;4.498;2024-02-16T03:24:48;100768.75;;;10.27;100.00
69784;BME280;57054;51.978;4.498;2024-02-16T03:27:14;100768.75;;;10.27;100.00
69784;BME280;57054;51.978;4.498;2024-02-16T03:29:40;100767.03;;;10.26;100.00
69784;BME280;57054;51.978;4.498;2024-02-16T03:32:05;100774.00;;;10.27;100.00
69784;BME280;57054;51.978;4.498;2024-02-16T03:34:30;100775.72;;;10.28;100.00
69784;BME280;57054;51.978;4.498;2024-02-16T03:36:56;100772.22;;;10.27;100.00
69784;BME280;57054;51.978;4.498;2024-02-16T03:39:21;100764.38;;;10.27;100.00
69784;BME280;57054;51.978;4.498;2024-02-16T03:41:47;100761.91;;;10.24;100.00
69784;BME280;57054;51.978;4.498;2024-02-16T03:44:14;100760.97;;;10.25;100.00
69784;BME280;57054;51.978;4.498;2024-02-16T03:46:39;100762.69;;;10.26;100.00
69784;BME280;57054;51.978;4.498;2024-02-16T03:49:04;100764.50;;;10.24;100.00
69784;BME280;57054;51.978;4.498;2024-02-16T03:51:30;100759.19;;;10.26;100.00
69784;BME280;57054;51.978;4.498;2024-02-16T03:53:55;100769.66;;;10.26;100.00
69784;BME280;57054;51.978;4.498;2024-02-16T03:56:20;100770.53;;;10.26;100.00
69784;BME280;57054;51.978;4.498;2024-02-16T03:58:46;100774.16;;;10.22;100.00
69784;BME280;57054;51.978;4.498;2024-02-16T04:01:11;100769.06;;;10.19;100.00
69784;BME280;57054;51.978;4.498;2024-02-16T04:03:36;100777.72;;;10.21;100.00
69784;BME280;57054;51.978;4.498;2024-02-16T04:06:02;100774.09;;;10.24;100.00
69784;BME280;57054;51.978;4.498;2024-02-16T04:08:29;100774.09;;;10.24;100.00
69784;BME280;57054;51.978;4.498;2024-02-16T04:10:54;100783.72;;;10.23;100.00
69784;BME280;57054;51.978;4.498;2024-02-16T06:32:03;100824.16;;;10.16;100.00
69784;BME280;57054;51.978;4.498;2024-02-16T06:34:29;100831.09;;;10.17;100.00
69784;BME280;57054;51.978;4.498;2024-02-16T06:36:54;100832.84;;;10.16;100.00
69784;BME280;57054;51.978;4.498;2024-02-16T06:39:20;100835.47;;;10.16;100.00
69784;BME280;57054;51.978;4.498;2024-02-16T06:41:45;100840.75;;;10.15;100.00
69784;BME280;57054;51.978;4.498;2024-02-16T06:44:11;100850.22;;;10.19;100.00
69784;BME280;57054;51.978;4.498;2024-02-16T06:46:37;100846.66;;;10.20;100.00
69784;BME280;57054;51.978;4.498;2024-02-16T06:49:02;100847.53;;;10.21;100.00
69784;BME280;57054;51.978;4.498;2024-02-16T06:51:27;100853.56;;;10.23;100.00
69784;BME280;57054;51.978;4.498;2024-02-16T06:53:53;100848.31;;;10.23;100.00
69784;BME280;57054;51.978;4.498;2024-02-16T06:56:19;100850.88;;;10.24;100.00
69784;BME280;57054;51.978;4.498;2024-02-16T06:58:44;100851.69;;;10.26;100.00
69784;BME280;57054;51.978;4.498;2024-02-16T07:01:10;100852.47;;;10.28;100.00
69784;BME280;57054;51.978;4.498;2024-02-16T07:03:35;100865.44;;;10.31;100.00
69784;BME280;57054;51.978;4.498;2024-02-16T07:06:04;100868.94;;;10.32;100.00
69784;BME280;57054;51.978;4.498;2024-02-16T07:08:29;100881.03;;;10.34;100.00
69784;BME280;57054;51.978;4.498;2024-02-16T07:10:54;100880.19;;;10.34;100.00
69784;BME280;57054;51.978;4.498;2024-02-16T07:13:21;100887.13;;;10.35;100.00
69784;BME280;57054;51.978;4.498;2024-02-16T07:15:47;100879.25;;;10.35;100.00
69784;BME280;57054;51.978;4.498;2024-02-16T07:18:12;100888.91;;;10.34;100.00
69784;BME280;57054;51.978;4.498;2024-02-16T07:20:38;100899.38;;;10.34;100.00
69784;BME280;57054;51.978;4.498;2024-02-16T07:23:03;100907.09;;;10.37;100.00
69784;BME280;57054;51.978;4.498;2024-02-16T07:25:28;100906.25;;;10.37;100.00
69784;BME280;57054;51.978;4.498;2024-02-16T07:27:54;100914.97;;;10.37;100.00
69784;BME280;57054;51.978;4.498;2024-02-16T07:30:19;100913.25;;;10.36;100.00
69784;BME280;57054;51.978;4.498;2024-02-16T07:32:48;100922.81;;;10.37;100.00
69784;BME280;57054;51.978;4.498;2024-02-16T07:35:14;100936.69;;;10.40;100.00
69784;BME280;57054;51.978;4.498;2024-02-16T07:37:39;100935.72;;;10.42;100.00
69784;BME280;57054;51.978;4.498;2024-02-16T07:40:04;100926.97;;;10.43;100.00
69784;BME280;57054;51.978;4.498;2024-02-16T07:42:31;100934.66;;;10.48;100.00
69784;BME280;57054;51.978;4.498;2024-02-16T07:44:56;100940.53;;;10.53;100.00
69784;BME280;57054;51.978;4.498;2024-02-16T07:47:21;100943.88;;;10.56;100.00
69784;BME280;57054;51.978;4.498;2024-02-16T07:49:47;100945.59;;;10.57;100.00
69784;BME280;57054;51.978;4.498;2024-02-16T07:52:12;100948.19;;;10.59;100.00
69784;BME280;57054;51.978;4.498;2024-02-16T07:54:37;100954.09;;;10.64;100.00
69784;BME280;57054;51.978;4.498;2024-02-16T07:57:03;100951.31;;;10.67;100.00
69784;BME280;57054;51.978;4.498;2024-02-16T07:59:29;100958.19;;;10.71;100.00
69784;BME280;57054;51.978;4.498;2024-02-16T08:01:54;100958.03;;;10.74;100.00
69784;BME280;57054;51.978;4.498;2024-02-16T08:04:19;100965.06;;;10.74;100.00
69784;BME280;57054;51.978;4.498;2024-02-16T08:06:45;100961.38;;;10.78;100.00
69784;BME280;57054;51.978;4.498;2024-02-16T08:09:10;100957.94;;;10.78;100.00
69784;BME280;57054;51.978;4.498;2024-02-16T08:11:35;100968.41;;;10.78;100.00
69784;BME280;57054;51.978;4.498;2024-02-16T08:14:01;100969.25;;;10.78;100.00
69784;BME280;57054;51.978;4.498;2024-02-16T08:16:26;100972.66;;;10.80;100.00
69784;BME280;57054;51.978;4.498;2024-02-16T08:18:52;100980.34;;;10.85;100.00
69784;BME280;57054;51.978;4.498;2024-02-16T08:21:18;100982.13;;;10.84;100.00
69784;BME280;57054;51.978;4.498;2024-02-16T08:23:43;100989.91;;;10.86;100.00
69784;BME280;57054;51.978;4.498;2024-02-16T08:26:08;100997.75;;;10.86;100.00
69784;BME280;57054;51.978;4.498;2024-02-16T08:28:34;101009.13;;;10.86;100.00
69784;BME280;57054;51.978;4.498;2024-02-16T08:30:59;101000.31;;;10.87;100.00
69784;BME280;57054;51.978;4.498;2024-02-16T08:33:24;101002.94;;;10.87;100.00
69784;BME280;57054;51.978;4.498;2024-02-16T08:35:49;101003.00;;;10.86;100.00
69784;BME280;57054;51.978;4.498;2024-02-16T08:38:15;101000.47;;;10.84;100.00
69784;BME280;57054;51.978;4.498;2024-02-16T08:40:41;101003.97;;;10.83;100.00
69784;BME280;57054;51.978;4.498;2024-02-16T08:43:06;101003.94;;;10.85;100.00
69784;BME280;57054;51.978;4.498;2024-02-16T08:45:34;101014.34;;;10.86;100.00
69784;BME280;57054;51.978;4.498;2024-02-16T08:48:00;101023.06;;;10.87;100.00
69784;BME280;57054;51.978;4.498;2024-02-16T08:50:27;101041.34;;;10.88;100.00
69784;BME280;57054;51.978;4.498;2024-02-16T08:52:52;101037.78;;;10.89;100.00
69784;BME280;57054;51.978;4.498;2024-02-16T08:55:18;101045.53;;;10.92;100.00
69784;BME280;57054;51.978;4.498;2024-02-16T08:57:43;101050.69;;;10.95;100.00
69784;BME280;57054;51.978;4.498;2024-02-16T09:00:08;101054.09;;;10.98;100.00
69784;BME280;57054;51.978;4.498;2024-02-16T09:02:35;101062.75;;;11.00;100.00
69784;BME280;57054;51.978;4.498;2024-02-16T09:05:00;101062.69;;;11.01;100.00
69784;BME280;57054;51.978;4.498;2024-02-16T09:07:25;101067.97;;;11.00;100.00
69784;BME280;57054;51.978;4.498;2024-02-16T09:09:51;101075.94;;;10.97;100.00
69784;BME280;57054;51.978;4.498;2024-02-16T09:12:16;101078.63;;;10.95;100.00
69784;BME280;57054;51.978;4.498;2024-02-16T09:14:41;101074.31;;;10.94;100.00
69784;BME280;57054;51.978;4.498;2024-02-16T09:17:07;101078.75;;;10.92;100.00
69784;BME280;57054;51.978;4.498;2024-02-16T09:19:32;101082.34;;;10.89;100.00
69784;BME280;57054;51.978;4.498;2024-02-16T09:21:57;101084.13;;;10.89;100.00
69784;BME280;57054;51.978;4.498;2024-02-16T09:24:23;101093.81;;;10.87;100.00
69784;BME280;57054;51.978;4.498;2024-02-16T09:26:53;101094.69;;;10.86;100.00
69784;BME280;57054;51.978;4.498;2024-02-16T09:29:19;101108.78;;;10.83;100.00
69784;BME280;57054;51.978;4.498;2024-02-16T09:31:44;101109.81;;;10.79;100.00
69784;BME280;57054;51.978;4.498;2024-02-16T09:34:09;101112.44;;;10.79;100.00
69784;BME280;57054;51.978;4.498;2024-02-16T09:36:34;101131.66;;;10.78;100.00
69784;BME280;57054;51.978;4.498;2024-02-16T09:39:02;101126.53;;;10.75;100.00
69784;BME280;57054;51.978;4.498;2024-02-16T09:41:27;101125.59;;;10.78;100.00
69784;BME280;57054;51.978;4.498;2024-02-16T09:43:53;101130.94;;;10.74;100.00
69784;BME280;57054;51.978;4.498;2024-02-16T09:46:19;101137.94;;;10.74;100.00
69784;BME280;57054;51.978;4.498;2024-02-16T09:48:46;101145.91;;;10.71;100.00
69784;BME280;57054;51.978;4.498;2024-02-16T09:51:13;101154.56;;;10.73;100.00
69784;BME280;57054;51.978;4.498;2024-02-16T09:53:38;101167.94;;;10.65;100.00
69784;BME280;57054;51.978;4.498;2024-02-16T09:56:07;101172.38;;;10.63;100.00
69784;BME280;57054;51.978;4.498;2024-02-16T09:58:35;101178.50;;;10.62;100.00
69784;BME280;57054;51.978;4.498;2024-02-16T10:01:02;101185.56;;;10.60;100.00
69784;BME280;57054;51.978;4.498;2024-02-16T10:03:28;101185.75;;;10.55;100.00
69784;BME280;57054;51.978;4.498;2024-02-16T10:06:04;101201.34;;;10.59;100.00
69784;BME280;57054;51.978;4.498;2024-02-16T10:08:29;101203.38;;;10.50;100.00
69784;BME280;57054;51.978;4.498;2024-02-16T10:11:04;101221.97;;;10.43;100.00
69784;BME280;57054;51.978;4.498;2024-02-16T10:13:30;101223.94;;;10.36;100.00
69784;BME280;57054;51.978;4.498;2024-02-16T10:16:13;101232.59;;;10.38;100.00
69784;BME280;57054;51.978;4.498;2024-02-16T10:18:39;101236.13;;;10.37;100.00
69784;BME280;57054;51.978;4.498;2024-02-16T10:21:04;101232.81;;;10.32;100.00
69784;BME280;57054;51.978;4.498;2024-02-16T10:23:30;101231.09;;;10.31;100.00
69784;BME280;57054;51.978;4.498;2024-02-16T10:25:55;101242.53;;;10.27;100.00
69784;BME280;57054;51.978;4.498;2024-02-16T10:28:21;101239.94;;;10.27;100.00
69784;BME280;57054;51.978;4.498;2024-02-16T10:30:52;101253.97;;;10.24;100.00
69784;BME280;57054;51.978;4.498;2024-02-16T10:33:21;101262.81;;;10.20;100.00
69784;BME280;57054;51.978;4.498;2024-02-16T10:35:47;101262.78;;;10.22;100.00
69784;BME280;57054;51.978;4.498;2024-02-16T10:38:13;101261.94;;;10.21;100.00
69784;BME280;57054;51.978;4.498;2024-02-16T10:40:39;101273.19;;;10.23;100.00
69784;BME280;57054;51.978;4.498;2024-02-16T10:43:05;101288.06;;;10.23;100.00
69784;BME280;57054;51.978;4.498;2024-02-16T10:45:34;101283.66;;;10.23;100.00
69784;BME280;57054;51.978;4.498;2024-02-16T10:48:00;101290.38;;;10.33;100.00
69784;BME280;57054;51.978;4.498;2024-02-16T10:50:26;101286.78;;;10.36;100.00
69784;BME280;57054;51.978;4.498;2024-02-16T10:52:51;101284.25;;;10.33;100.00
69784;BME280;57054;51.978;4.498;2024-02-16T10:55:18;101280.81;;;10.31;100.00
69784;BME280;57054;51.978;4.498;2024-02-16T10:57:44;101286.06;;;10.31;100.00
69784;BME280;57054;51.978;4.498;2024-02-16T11:00:09;101291.97;;;10.37;100.00
69784;BME280;57054;51.978;4.498;2024-02-16T11:02:58;101301.50;;;10.38;100.00
69784;BME280;57054;51.978;4.498;2024-02-16T11:05:36;101312.88;;;10.39;100.00
69784;BME280;57054;51.978;4.498;2024-02-16T11:08:11;101318.19;;;10.36;100.00
69784;BME280;57054;51.978;4.498;2024-02-16T11:10:38;101324.41;;;10.33;100.00
69784;BME280;57054;51.978;4.498;2024-02-16T11:13:03;101338.16;;;10.38;100.00
69784;BME280;57054;51.978;4.498;2024-02-16T11:15:33;101336.56;;;10.34;100.00
69784;BME280;57054;51.978;4.498;2024-02-16T11:18:02;101340.19;;;10.29;100.00
69784;BME280;57054;51.978;4.498;2024-02-16T11:20:27;101353.25;;;10.30;100.00
69784;BME280;57054;51.978;4.498;2024-02-16T11:22:53;101353.34;;;10.27;100.00
69784;BME280;57054;51.978;4.498;2024-02-16T11:25:18;101360.78;;;10.11;100.00
69784;BME280;57054;51.978;4.498;2024-02-16T11:27:45;101366.47;;;10.26;100.00
69784;BME280;57054;51.978;4.498;2024-02-16T11:30:11;101372.63;;;10.25;100.00
69784;BME280;57054;51.978;4.498;2024-02-16T11:32:36;101367.94;;;10.36;100.00
69784;BME280;57054;51.978;4.498;2024-02-16T11:35:08;101370.31;;;10.44;100.00
69784;BME280;57054;51.978;4.498;2024-02-16T11:37:33;101376.25;;;10.49;100.00
69784;BME280;57054;51.978;4.498;2024-02-16T11:39:58;101383.28;;;10.48;100.00
69784;BME280;57054;51.978;4.498;2024-02-16T11:42:24;101384.00;;;10.53;100.00
69784;BME280;57054;51.978;4.498;2024-02-16T11:44:53;101386.41;;;10.60;100.00
69784;BME280;57054;51.978;4.498;2024-02-16T11:47:19;101395.00;;;10.63;100.00
69784;BME280;57054;51.978;4.498;2024-02-16T11:49:45;101395.31;;;10.54;100.00
69784;BME280;57054;51.978;4.498;2024-02-16T11:52:11;101390.97;;;10.53;100.00
69784;BME280;57054;51.978;4.498;2024-02-16T11:54:36;101400.47;;;10.57;100.00
69784;BME280;57054;51.978;4.498;2024-02-16T11:57:02;101401.09;;;10.64;100.00
69784;BME280;57054;51.978;4.498;2024-02-16T11:59:28;101411.78;;;10.57;100.00
69784;BME280;57054;51.978;4.498;2024-02-16T12:01:58;101403.09;;;10.57;100.00
69784;BME280;57054;51.978;4.498;2024-02-16T12:04:32;101417.78;;;10.61;100.00
69784;BME280;57054;51.978;4.498;2024-02-16T12:06:59;101422.78;;;10.69;100.00
69784;BME280;57054;51.978;4.498;2024-02-16T12:09:24;101408.63;;;10.74;100.00
69784;BME280;57054;51.978;4.498;2024-02-16T12:11:50;101422.63;;;10.73;100.00
69784;BME280;57054;51.978;4.498;2024-02-16T12:14:16;101421.69;;;10.76;100.00
69784;BME280;57054;51.978;4.498;2024-02-16T12:16:42;101428.88;;;10.69;100.00
69784;BME280;57054;51.978;4.498;2024-02-16T12:19:08;101439.25;;;10.72;100.00
69784;BME280;57054;51.978;4.498;2024-02-16T12:21:35;101434.81;;;10.74;100.00
69784;BME280;57054;51.978;4.498;2024-02-16T12:24:01;101441.56;;;10.82;100.00
69784;BME280;57054;51.978;4.498;2024-02-16T12:26:26;101447.84;;;10.78;100.00
69784;BME280;57054;51.978;4.498;2024-02-16T12:28:51;101436.59;;;10.74;100.00
69784;BME280;57054;51.978;4.498;2024-02-16T12:31:23;101451.38;;;10.75;100.00
69784;BME280;57054;51.978;4.498;2024-02-16T12:33:48;101452.41;;;10.71;100.00
69784;BME280;57054;51.978;4.498;2024-02-16T12:36:14;101459.16;;;10.78;100.00
69784;BME280;57054;51.978;4.498;2024-02-16T12:38:39;101463.50;;;10.79;100.00
69784;BME280;57054;51.978;4.498;2024-02-16T12:41:05;101466.88;;;10.83;100.00
69784;BME280;57054;51.978;4.498;2024-02-16T12:43:30;101467.00;;;10.78;100.00
69784;BME280;57054;51.978;4.498;2024-02-16T12:45:55;101472.94;;;10.85;100.00
69784;BME280;57054;51.978;4.498;2024-02-16T12:48:21;101478.41;;;10.77;100.00
69784;BME280;57054;51.978;4.498;2024-02-16T12:50:46;101474.97;;;10.75;100.00
69784;BME280;57054;51.978;4.498;2024-02-16T12:53:12;101482.91;;;10.73;100.00
69784;BME280;57054;51.978;4.498;2024-02-16T12:55:38;101482.19;;;10.68;100.00
69784;BME280;57054;51.978;4.498;2024-02-16T12:58:03;101488.13;;;10.73;100.00
69784;BME280;57054;51.978;4.498;2024-02-16T13:00:29;101497.66;;;10.76;100.00
69784;BME280;57054;51.978;4.498;2024-02-16T13:02:54;101504.47;;;10.82;100.00
69784;BME280;57054;51.978;4.498;2024-02-16T13:05:19;101509.69;;;10.82;100.00
69784;BME280;57054;51.978;4.498;2024-02-16T13:07:45;101507.25;;;10.77;100.00
69784;BME280;57054;51.978;4.498;2024-02-16T13:10:10;101519.25;;;10.84;100.00
69784;BME280;57054;51.978;4.498;2024-02-16T13:12:36;101525.34;;;10.85;100.00
69784;BME280;57054;51.978;4.498;2024-02-16T13:15:02;101520.00;;;10.88;100.00
69784;BME280;57054;51.978;4.498;2024-02-16T13:17:28;101525.25;;;10.88;100.00
69784;BME280;57054;51.978;4.498;2024-02-16T13:19:53;101526.09;;;10.88;100.00
69784;BME280;57054;51.978;4.498;2024-02-16T13:22:19;101525.91;;;10.94;100.00
69784;BME280;57054;51.978;4.498;2024-02-16T13:24:45;101534.56;;;10.97;100.00
69784;BME280;57054;51.978;4.498;2024-02-16T13:27:10;101536.13;;;11.02;100.00
69784;BME280;57054;51.978;4.498;2024-02-16T13:29:35;101529.16;;;11.03;100.00
69784;BME280;57054;51.978;4.498;2024-02-16T13:32:01;101529.97;;;11.05;100.00
69784;BME280;57054;51.978;4.498;2024-02-16T13:34:26;101535.91;;;11.10;100.00
69784;BME280;57054;51.978;4.498;2024-02-16T13:36:52;101541.13;;;11.11;100.00
69784;BME280;57054;51.978;4.498;2024-02-16T13:39:17;101542.78;;;11.14;100.00
69784;BME280;57054;51.978;4.498;2024-02-16T13:41:44;101546.19;;;11.16;100.00
69784;BME280;57054;51.978;4.498;2024-02-16T13:44:11;101546.97;;;11.20;100.00
69784;BME280;57054;51.978;4.498;2024-02-16T13:46:36;101550.38;;;11.22;100.00
69784;BME280;57054;51.978;4.498;2024-02-16T13:49:02;101565.22;;;11.23;100.00
69784;BME280;57054;51.978;4.498;2024-02-16T13:51:27;101553.81;;;11.24;100.00
69784;BME280;57054;51.978;4.498;2024-02-16T13:53:52;101559.84;;;11.26;100.00
69784;BME280;57054;51.978;4.498;2024-02-16T13:56:18;101558.97;;;11.27;100.00
69784;BME280;57054;51.978;4.498;2024-02-16T13:58:43;101566.03;;;11.25;100.00
69784;BME280;57054;51.978;4.498;2024-02-16T14:01:08;101572.22;;;11.22;100.00
69784;BME280;57054;51.978;4.498;2024-02-16T14:03:33;101571.44;;;11.19;100.00
69784;BME280;57054;51.978;4.498;2024-02-16T14:05:59;101579.25;;;11.20;100.00
69784;BME280;57054;51.978;4.498;2024-02-16T14:08:25;101579.31;;;11.19;100.00
69784;BME280;57054;51.978;4.498;2024-02-16T14:10:51;101585.44;;;11.19;100.00
69784;BME280;57054;51.978;4.498;2024-02-16T14:13:17;101585.44;;;11.19;100.00
69784;BME280;57054;51.978;4.498;2024-02-16T14:15:42;101594.28;;;11.15;100.00
69784;BME280;57054;51.978;4.498;2024-02-16T14:18:07;101590.81;;;11.14;100.00
69784;BME280;57054;51.978;4.498;2024-02-16T14:20:32;101600.28;;;11.19;100.00
69784;BME280;57054;51.978;4.498;2024-02-16T14:22:58;101599.31;;;11.23;100.00
69784;BME280;57054;51.978;4.498;2024-02-16T14:25:23;101601.13;;;11.21;100.00
69784;BME280;57054;51.978;4.498;2024-02-16T14:27:50;101608.06;;;11.22;100.00
69784;BME280;57054;51.978;4.498;2024-02-16T14:30:15;101603.63;;;11.24;100.00
69784;BME280;57054;51.978;4.498;2024-02-16T14:32:41;101607.13;;;11.24;100.00
69784;BME280;57054;51.978;4.498;2024-02-16T14:35:06;101609.75;;;11.24;100.00
69784;BME280;57054;51.978;4.498;2024-02-16T14:37:32;101620.13;;;11.27;100.00
69784;BME280;57054;51.978;4.498;2024-02-16T14:39:58;101620.88;;;11.31;100.00
69784;BME280;57054;51.978;4.498;2024-02-16T14:42:24;101626.84;;;11.36;100.00
69784;BME280;57054;51.978;4.498;2024-02-16T14:44:49;101630.28;;;11.38;100.00
69784;BME280;57054;51.978;4.498;2024-02-16T14:47:15;101635.53;;;11.38;100.00
69784;BME280;57054;51.978;4.498;2024-02-16T14:49:41;101640.81;;;11.37;100.00
69784;BME280;57054;51.978;4.498;2024-02-16T14:52:06;101643.63;;;11.30;100.00